sensor_id;sensor_type;location;lat;lon;timestamp;P1;durP1;ratioP1;P2;durP2;ratioP2
70707;SDS011;58277;47.316;18.908;2023-06-10T00:00:59;17.87;;;7.27;;
70707;SDS011;58277;47.316;18.908;2023-06-10T00:03:22;13.55;;;7.15;;
70707;SDS011;58277;47.316;18.908;2023-06-10T00:05:46;13.88;;;7.72;;
70707;SDS011;58277;47.316;18.908;2023-06-10T00:08:09;14.63;;;7.25;;
70707;SDS011;58277;47.316;18.908;2023-06-10T00:10:33;17.30;;;7.30;;
70707;SDS011;58277;47.316;18.908;2023-06-10T00:13:00;18.30;;;7.63;;
70707;SDS011;58277;47.316;18.908;2023-06-10T00:15:23;16.75;;;7.95;;
70707;SDS011;58277;47.316;18.908;2023-06-10T00:17:45;14.32;;;7.43;;
70707;SDS011;58277;47.316;18.908;2023-06-10T00:20:08;14.75;;;7.93;;
70707;SDS011;58277;47.316;18.908;2023-06-10T00:22:34;16.88;;;8.35;;
70707;SDS011;58277;47.316;18.908;2023-06-10T00:24:57;18.93;;;7.77;;
70707;SDS011;58277;47.316;18.908;2023-06-10T00:27:20;17.38;;;7.82;;
70707;SDS011;58277;47.316;18.908;2023-06-10T00:29:43;15.45;;;7.82;;
70707;SDS011;58277;47.316;18.908;2023-06-10T00:32:05;17.00;;;7.80;;
70707;SDS011;58277;47.316;18.908;2023-06-10T00:34:29;14.02;;;8.05;;
70707;SDS011;58277;47.316;18.908;2023-06-10T00:36:53;15.27;;;7.67;;
70707;SDS011;58277;47.316;18.908;2023-06-10T00:39:15;12.85;;;7.55;;
70707;SDS011;58277;47.316;18.908;2023-06-10T00:41:38;14.80;;;7.88;;
70707;SDS011;58277;47.316;18.908;2023-06-10T00:44:01;17.00;;;7.90;;
70707;SDS011;58277;47.316;18.908;2023-06-10T00:46:24;16.27;;;8.45;;
70707;SDS011;58277;47.316;18.908;2023-06-10T00:48:50;14.63;;;7.37;;
70707;SDS011;58277;47.316;18.908;2023-06-10T00:51:13;19.10;;;8.52;;
70707;SDS011;58277;47.316;18.908;2023-06-10T00:53:37;15.25;;;7.72;;
70707;SDS011;58277;47.316;18.908;2023-06-10T00:56:02;16.35;;;8.80;;
70707;SDS011;58277;47.316;18.908;2023-06-10T00:58:26;17.05;;;8.25;;
70707;SDS011;58277;47.316;18.908;2023-06-10T01:00:49;16.20;;;8.30;;
70707;SDS011;58277;47.316;18.908;2023-06-10T01:03:12;18.50;;;8.70;;
70707;SDS011;58277;47.316;18.908;2023-06-10T01:05:35;16.33;;;8.90;;
70707;SDS011;58277;47.316;18.908;2023-06-10T01:08:43;16.08;;;8.65;;
70707;SDS011;58277;47.316;18.908;2023-06-10T01:11:06;16.58;;;8.27;;
70707;SDS011;58277;47.316;18.908;2023-06-10T01:13:35;16.90;;;9.03;;
70707;SDS011;58277;47.316;18.908;2023-06-10T01:16:00;21.42;;;9.07;;
70707;SDS011;58277;47.316;18.908;2023-06-10T01:18:29;15.35;;;8.43;;
70707;SDS011;58277;47.316;18.908;2023-06-10T01:20:53;18.20;;;8.52;;
70707;SDS011;58277;47.316;18.908;2023-06-10T01:23:16;15.10;;;8.80;;
70707;SDS011;58277;47.316;18.908;2023-06-10T01:25:41;16.87;;;8.43;;
70707;SDS011;58277;47.316;18.908;2023-06-10T01:28:14;15.60;;;8.38;;
70707;SDS011;58277;47.316;18.908;2023-06-10T01:33:17;18.67;;;7.75;;
70707;SDS011;58277;47.316;18.908;2023-06-10T01:35:48;19.55;;;8.30;;
70707;SDS011;58277;47.316;18.908;2023-06-10T01:38:12;13.40;;;7.50;;
70707;SDS011;58277;47.316;18.908;2023-06-10T01:40:36;14.90;;;7.70;;
70707;SDS011;58277;47.316;18.908;2023-06-10T01:43:01;14.82;;;7.50;;
70707;SDS011;58277;47.316;18.908;2023-06-10T01:45:24;14.32;;;7.28;;
70707;SDS011;58277;47.316;18.908;2023-06-10T01:47:47;16.25;;;7.32;;
70707;SDS011;58277;47.316;18.908;2023-06-10T01:50:10;15.00;;;7.57;;
70707;SDS011;58277;47.316;18.908;2023-06-10T01:52:32;16.25;;;7.43;;
70707;SDS011;58277;47.316;18.908;2023-06-10T01:54:56;15.60;;;7.65;;
70707;SDS011;58277;47.316;18.908;2023-06-10T01:57:18;13.13;;;7.22;;
70707;SDS011;58277;47.316;18.908;2023-06-10T01:59:42;17.00;;;8.02;;
70707;SDS011;58277;47.316;18.908;2023-06-10T02:02:06;15.57;;;7.23;;
70707;SDS011;58277;47.316;18.908;2023-06-10T02:04:29;15.13;;;6.93;;
70707;SDS011;58277;47.316;18.908;2023-06-10T02:06:53;14.40;;;7.05;;
70707;SDS011;58277;47.316;18.908;2023-06-10T02:09:20;14.52;;;7.38;;
70707;SDS011;58277;47.316;18.908;2023-06-10T02:11:42;14.98;;;7.18;;
70707;SDS011;58277;47.316;18.908;2023-06-10T02:14:05;18.10;;;7.80;;
70707;SDS011;58277;47.316;18.908;2023-06-10T02:16:28;16.17;;;7.43;;
70707;SDS011;58277;47.316;18.908;2023-06-10T02:18:51;15.13;;;7.18;;
70707;SDS011;58277;47.316;18.908;2023-06-10T02:21:14;14.18;;;6.95;;
70707;SDS011;58277;47.316;18.908;2023-06-10T02:23:37;16.42;;;7.45;;
70707;SDS011;58277;47.316;18.908;2023-06-10T02:25:59;15.70;;;7.13;;
70707;SDS011;58277;47.316;18.908;2023-06-10T02:28:22;15.43;;;7.28;;
70707;SDS011;58277;47.316;18.908;2023-06-10T02:30:45;15.45;;;7.55;;
70707;SDS011;58277;47.316;18.908;2023-06-10T02:33:09;15.93;;;7.50;;
70707;SDS011;58277;47.316;18.908;2023-06-10T02:35:33;14.48;;;7.40;;
70707;SDS011;58277;47.316;18.908;2023-06-10T02:37:56;13.83;;;7.60;;
70707;SDS011;58277;47.316;18.908;2023-06-10T02:40:19;17.38;;;8.05;;
70707;SDS011;58277;47.316;18.908;2023-06-10T02:42:42;16.45;;;7.85;;
70707;SDS011;58277;47.316;18.908;2023-06-10T02:45:05;15.40;;;8.02;;
70707;SDS011;58277;47.316;18.908;2023-06-10T02:47:34;14.93;;;7.78;;
70707;SDS011;58277;47.316;18.908;2023-06-10T02:49:58;14.17;;;7.90;;
70707;SDS011;58277;47.316;18.908;2023-06-10T02:52:21;16.33;;;7.88;;
70707;SDS011;58277;47.316;18.908;2023-06-10T02:54:45;16.13;;;7.95;;
70707;SDS011;58277;47.316;18.908;2023-06-10T02:57:09;16.17;;;7.88;;
70707;SDS011;58277;47.316;18.908;2023-06-10T02:59:33;15.18;;;8.23;;
70707;SDS011;58277;47.316;18.908;2023-06-10T03:01:55;17.40;;;8.37;;
70707;SDS011;58277;47.316;18.908;2023-06-10T03:04:20;16.17;;;8.48;;
70707;SDS011;58277;47.316;18.908;2023-06-10T03:06:50;18.65;;;8.15;;
70707;SDS011;58277;47.316;18.908;2023-06-10T03:09:19;14.85;;;7.68;;
70707;SDS011;58277;47.316;18.908;2023-06-10T03:11:45;17.77;;;8.60;;
70707;SDS011;58277;47.316;18.908;2023-06-10T03:14:07;17.37;;;8.37;;
70707;SDS011;58277;47.316;18.908;2023-06-10T03:19:37;17.42;;;8.65;;
70707;SDS011;58277;47.316;18.908;2023-06-10T03:22:07;15.88;;;8.68;;
70707;SDS011;58277;47.316;18.908;2023-06-10T03:24:34;19.75;;;9.50;;
70707;SDS011;58277;47.316;18.908;2023-06-10T03:27:00;18.17;;;9.17;;
70707;SDS011;58277;47.316;18.908;2023-06-10T03:29:23;21.23;;;9.43;;
70707;SDS011;58277;47.316;18.908;2023-06-10T03:31:46;19.45;;;9.50;;
70707;SDS011;58277;47.316;18.908;2023-06-10T03:34:09;17.33;;;8.93;;
70707;SDS011;58277;47.316;18.908;2023-06-10T03:36:32;18.40;;;9.10;;
70707;SDS011;58277;47.316;18.908;2023-06-10T03:38:56;17.17;;;8.47;;
70707;SDS011;58277;47.316;18.908;2023-06-10T03:41:20;16.60;;;8.77;;
70707;SDS011;58277;47.316;18.908;2023-06-10T03:43:45;17.17;;;9.40;;
70707;SDS011;58277;47.316;18.908;2023-06-10T03:46:09;19.92;;;9.63;;
70707;SDS011;58277;47.316;18.908;2023-06-10T03:48:33;17.38;;;9.48;;
70707;SDS011;58277;47.316;18.908;2023-06-10T03:50:56;18.07;;;8.87;;
70707;SDS011;58277;47.316;18.908;2023-06-10T03:53:19;18.55;;;8.68;;
70707;SDS011;58277;47.316;18.908;2023-06-10T03:55:42;17.85;;;8.35;;
70707;SDS011;58277;47.316;18.908;2023-06-10T03:58:05;15.75;;;8.30;;
70707;SDS011;58277;47.316;18.908;2023-06-10T04:00:27;15.85;;;8.25;;
70707;SDS011;58277;47.316;18.908;2023-06-10T04:02:51;17.33;;;8.10;;
70707;SDS011;58277;47.316;18.908;2023-06-10T04:05:24;18.23;;;8.32;;
70707;SDS011;58277;47.316;18.908;2023-06-10T04:07:47;14.73;;;7.88;;
70707;SDS011;58277;47.316;18.908;2023-06-10T04:10:10;14.98;;;8.18;;
70707;SDS011;58277;47.316;18.908;2023-06-10T04:12:34;18.05;;;7.93;;
70707;SDS011;58277;47.316;18.908;2023-06-10T04:14:57;14.40;;;8.40;;
70707;SDS011;58277;47.316;18.908;2023-06-10T04:17:21;15.13;;;7.20;;
70707;SDS011;58277;47.316;18.908;2023-06-10T04:19:43;14.73;;;7.57;;
70707;SDS011;58277;47.316;18.908;2023-06-10T04:22:07;13.85;;;7.43;;
70707;SDS011;58277;47.316;18.908;2023-06-10T04:24:29;14.90;;;7.97;;
70707;SDS011;58277;47.316;18.908;2023-06-10T04:26:52;14.70;;;7.43;;
70707;SDS011;58277;47.316;18.908;2023-06-10T04:29:15;15.93;;;7.60;;
70707;SDS011;58277;47.316;18.908;2023-06-10T04:31:38;12.63;;;7.65;;
70707;SDS011;58277;47.316;18.908;2023-06-10T04:34:02;12.50;;;7.30;;
70707;SDS011;58277;47.316;18.908;2023-06-10T04:36:24;15.77;;;8.32;;
70707;SDS011;58277;47.316;18.908;2023-06-10T04:38:47;14.67;;;7.87;;
70707;SDS011;58277;47.316;18.908;2023-06-10T04:41:10;13.35;;;7.47;;
70707;SDS011;58277;47.316;18.908;2023-06-10T04:43:32;13.07;;;7.45;;
70707;SDS011;58277;47.316;18.908;2023-06-10T04:45:56;10.20;;;6.70;;
70707;SDS011;58277;47.316;18.908;2023-06-10T04:48:21;12.52;;;6.35;;
70707;SDS011;58277;47.316;18.908;2023-06-10T04:50:48;12.47;;;6.43;;
70707;SDS011;58277;47.316;18.908;2023-06-10T04:53:10;14.02;;;6.70;;
70707;SDS011;58277;47.316;18.908;2023-06-10T04:55:36;10.68;;;6.32;;
70707;SDS011;58277;47.316;18.908;2023-06-10T04:57:59;12.80;;;7.30;;
70707;SDS011;58277;47.316;18.908;2023-06-10T05:00:22;12.27;;;7.35;;
70707;SDS011;58277;47.316;18.908;2023-06-10T05:02:45;12.13;;;7.77;;
70707;SDS011;58277;47.316;18.908;2023-06-10T05:05:12;11.82;;;7.60;;
70707;SDS011;58277;47.316;18.908;2023-06-10T05:07:34;15.80;;;9.32;;
70707;SDS011;58277;47.316;18.908;2023-06-10T05:09:57;10.63;;;5.93;;
70707;SDS011;58277;47.316;18.908;2023-06-10T05:12:20;8.43;;;5.70;;
70707;SDS011;58277;47.316;18.908;2023-06-10T05:14:43;8.13;;;5.10;;
70707;SDS011;58277;47.316;18.908;2023-06-10T05:17:07;8.88;;;5.45;;
70707;SDS011;58277;47.316;18.908;2023-06-10T05:19:29;8.95;;;5.63;;
70707;SDS011;58277;47.316;18.908;2023-06-10T05:21:52;8.50;;;5.85;;
70707;SDS011;58277;47.316;18.908;2023-06-10T05:24:15;9.07;;;5.75;;
70707;SDS011;58277;47.316;18.908;2023-06-10T05:26:38;9.90;;;5.80;;
70707;SDS011;58277;47.316;18.908;2023-06-10T05:29:01;11.68;;;6.00;;
70707;SDS011;58277;47.316;18.908;2023-06-10T05:31:24;7.93;;;5.55;;
70707;SDS011;58277;47.316;18.908;2023-06-10T05:33:46;6.47;;;4.60;;
70707;SDS011;58277;47.316;18.908;2023-06-10T05:36:09;5.82;;;4.13;;
70707;SDS011;58277;47.316;18.908;2023-06-10T05:38:32;10.33;;;4.50;;
70707;SDS011;58277;47.316;18.908;2023-06-10T05:40:54;8.30;;;5.78;;
70707;SDS011;58277;47.316;18.908;2023-06-10T05:43:19;6.80;;;4.93;;
70707;SDS011;58277;47.316;18.908;2023-06-10T05:45:42;7.03;;;4.90;;
70707;SDS011;58277;47.316;18.908;2023-06-10T05:48:04;8.40;;;5.22;;
70707;SDS011;58277;47.316;18.908;2023-06-10T05:50:27;10.23;;;5.53;;
70707;SDS011;58277;47.316;18.908;2023-06-10T05:52:50;8.15;;;5.40;;
70707;SDS011;58277;47.316;18.908;2023-06-10T05:55:15;10.85;;;5.65;;
70707;SDS011;58277;47.316;18.908;2023-06-10T05:57:41;9.52;;;5.75;;
70707;SDS011;58277;47.316;18.908;2023-06-10T06:00:04;8.70;;;5.50;;
70707;SDS011;58277;47.316;18.908;2023-06-10T06:02:33;7.80;;;4.93;;
70707;SDS011;58277;47.316;18.908;2023-06-10T06:04:56;9.65;;;5.05;;
70707;SDS011;58277;47.316;18.908;2023-06-10T06:07:19;6.70;;;4.90;;
70707;SDS011;58277;47.316;18.908;2023-06-10T06:09:43;6.60;;;4.60;;
70707;SDS011;58277;47.316;18.908;2023-06-10T06:12:06;6.78;;;4.65;;
70707;SDS011;58277;47.316;18.908;2023-06-10T06:14:30;8.43;;;4.70;;
70707;SDS011;58277;47.316;18.908;2023-06-10T06:16:54;6.60;;;4.55;;
70707;SDS011;58277;47.316;18.908;2023-06-10T06:19:17;5.75;;;4.20;;
70707;SDS011;58277;47.316;18.908;2023-06-10T06:21:39;6.03;;;4.25;;
70707;SDS011;58277;47.316;18.908;2023-06-10T06:24:02;6.47;;;4.57;;
70707;SDS011;58277;47.316;18.908;2023-06-10T06:26:25;6.53;;;4.07;;
70707;SDS011;58277;47.316;18.908;2023-06-10T06:28:49;7.40;;;4.60;;
70707;SDS011;58277;47.316;18.908;2023-06-10T06:31:12;6.22;;;4.32;;
70707;SDS011;58277;47.316;18.908;2023-06-10T06:33:34;6.78;;;4.32;;
70707;SDS011;58277;47.316;18.908;2023-06-10T06:35:57;6.38;;;4.53;;
70707;SDS011;58277;47.316;18.908;2023-06-10T06:38:22;8.03;;;4.30;;
70707;SDS011;58277;47.316;18.908;2023-06-10T06:40:45;7.43;;;4.30;;
70707;SDS011;58277;47.316;18.908;2023-06-10T06:43:07;5.65;;;4.28;;
70707;SDS011;58277;47.316;18.908;2023-06-10T06:45:36;6.03;;;4.50;;
70707;SDS011;58277;47.316;18.908;2023-06-10T06:47:59;6.75;;;4.22;;
70707;SDS011;58277;47.316;18.908;2023-06-10T06:50:22;8.27;;;4.23;;
70707;SDS011;58277;47.316;18.908;2023-06-10T06:52:44;6.35;;;4.32;;
70707;SDS011;58277;47.316;18.908;2023-06-10T06:55:07;7.07;;;4.35;;
70707;SDS011;58277;47.316;18.908;2023-06-10T06:57:31;8.10;;;4.25;;
70707;SDS011;58277;47.316;18.908;2023-06-10T06:59:54;5.65;;;4.30;;
70707;SDS011;58277;47.316;18.908;2023-06-10T07:02:17;6.27;;;4.37;;
70707;SDS011;58277;47.316;18.908;2023-06-10T07:04:41;6.28;;;4.28;;
70707;SDS011;58277;47.316;18.908;2023-06-10T07:07:04;9.07;;;4.57;;
70707;SDS011;58277;47.316;18.908;2023-06-10T07:09:29;7.45;;;4.63;;
70707;SDS011;58277;47.316;18.908;2023-06-10T07:11:52;7.05;;;4.40;;
70707;SDS011;58277;47.316;18.908;2023-06-10T07:14:14;6.33;;;4.30;;
70707;SDS011;58277;47.316;18.908;2023-06-10T07:16:37;7.03;;;4.30;;
70707;SDS011;58277;47.316;18.908;2023-06-10T07:19:00;6.60;;;4.40;;
70707;SDS011;58277;47.316;18.908;2023-06-10T07:21:27;6.43;;;4.60;;
70707;SDS011;58277;47.316;18.908;2023-06-10T07:23:50;6.60;;;4.43;;
70707;SDS011;58277;47.316;18.908;2023-06-10T07:26:16;6.53;;;4.33;;
70707;SDS011;58277;47.316;18.908;2023-06-10T07:28:39;7.38;;;4.68;;
70707;SDS011;58277;47.316;18.908;2023-06-10T07:31:03;7.47;;;4.80;;
70707;SDS011;58277;47.316;18.908;2023-06-10T07:33:26;6.63;;;4.70;;
70707;SDS011;58277;47.316;18.908;2023-06-10T07:35:48;8.35;;;4.15;;
70707;SDS011;58277;47.316;18.908;2023-06-10T07:38:11;7.00;;;4.33;;
70707;SDS011;58277;47.316;18.908;2023-06-10T07:40:34;7.65;;;5.10;;
70707;SDS011;58277;47.316;18.908;2023-06-10T07:42:56;8.38;;;4.82;;
70707;SDS011;58277;47.316;18.908;2023-06-10T07:45:20;6.35;;;4.65;;
70707;SDS011;58277;47.316;18.908;2023-06-10T07:47:43;7.30;;;4.80;;
70707;SDS011;58277;47.316;18.908;2023-06-10T07:50:06;6.03;;;4.50;;
70707;SDS011;58277;47.316;18.908;2023-06-10T07:52:29;7.47;;;5.00;;
70707;SDS011;58277;47.316;18.908;2023-06-10T07:54:52;6.53;;;4.80;;
70707;SDS011;58277;47.316;18.908;2023-06-10T07:57:15;5.85;;;4.30;;
70707;SDS011;58277;47.316;18.908;2023-06-10T07:59:37;6.65;;;4.10;;
70707;SDS011;58277;47.316;18.908;2023-06-10T08:02:00;7.90;;;4.67;;
70707;SDS011;58277;47.316;18.908;2023-06-10T08:04:23;6.78;;;4.70;;
70707;SDS011;58277;47.316;18.908;2023-06-10T08:06:46;7.30;;;4.70;;
70707;SDS011;58277;47.316;18.908;2023-06-10T08:09:09;6.32;;;4.80;;
70707;SDS011;58277;47.316;18.908;2023-06-10T08:11:32;6.60;;;4.35;;
70707;SDS011;58277;47.316;18.908;2023-06-10T08:13:54;5.73;;;4.57;;
70707;SDS011;58277;47.316;18.908;2023-06-10T08:16:17;6.60;;;4.68;;
70707;SDS011;58277;47.316;18.908;2023-06-10T08:18:40;6.20;;;4.60;;
70707;SDS011;58277;47.316;18.908;2023-06-10T08:21:03;8.20;;;4.90;;
70707;SDS011;58277;47.316;18.908;2023-06-10T08:23:25;6.20;;;4.70;;
70707;SDS011;58277;47.316;18.908;2023-06-10T08:25:48;6.27;;;4.70;;
70707;SDS011;58277;47.316;18.908;2023-06-10T08:28:11;6.03;;;4.68;;
70707;SDS011;58277;47.316;18.908;2023-06-10T08:30:33;6.97;;;4.85;;
70707;SDS011;58277;47.316;18.908;2023-06-10T08:32:56;5.82;;;4.28;;
70707;SDS011;58277;47.316;18.908;2023-06-10T08:35:19;6.65;;;4.63;;
70707;SDS011;58277;47.316;18.908;2023-06-10T08:37:41;7.07;;;4.90;;
70707;SDS011;58277;47.316;18.908;2023-06-10T08:40:04;6.68;;;4.75;;
70707;SDS011;58277;47.316;18.908;2023-06-10T08:42:28;6.55;;;5.00;;
70707;SDS011;58277;47.316;18.908;2023-06-10T08:44:58;7.93;;;5.97;;
70707;SDS011;58277;47.316;18.908;2023-06-10T08:47:26;8.52;;;4.82;;
70707;SDS011;58277;47.316;18.908;2023-06-10T08:49:54;7.53;;;5.20;;
70707;SDS011;58277;47.316;18.908;2023-06-10T08:52:20;8.15;;;5.10;;
70707;SDS011;58277;47.316;18.908;2023-06-10T08:54:46;7.07;;;5.15;;
70707;SDS011;58277;47.316;18.908;2023-06-10T08:57:14;6.60;;;4.90;;
70707;SDS011;58277;47.316;18.908;2023-06-10T08:59:38;7.43;;;5.07;;
70707;SDS011;58277;47.316;18.908;2023-06-10T09:02:02;6.43;;;4.70;;
70707;SDS011;58277;47.316;18.908;2023-06-10T09:04:27;5.80;;;4.70;;
70707;SDS011;58277;47.316;18.908;2023-06-10T09:06:50;7.03;;;4.90;;
70707;SDS011;58277;47.316;18.908;2023-06-10T09:09:14;7.35;;;5.00;;
70707;SDS011;58277;47.316;18.908;2023-06-10T09:11:37;6.43;;;5.05;;
70707;SDS011;58277;47.316;18.908;2023-06-10T09:14:00;8.47;;;5.20;;
70707;SDS011;58277;47.316;18.908;2023-06-10T09:16:24;8.15;;;5.80;;
70707;SDS011;58277;47.316;18.908;2023-06-10T09:18:47;10.52;;;6.15;;
70707;SDS011;58277;47.316;18.908;2023-06-10T09:21:10;7.85;;;5.95;;
70707;SDS011;58277;47.316;18.908;2023-06-10T09:23:34;9.07;;;6.28;;
70707;SDS011;58277;47.316;18.908;2023-06-10T09:25:59;8.60;;;6.30;;
70707;SDS011;58277;47.316;18.908;2023-06-10T09:28:21;7.93;;;6.05;;
70707;SDS011;58277;47.316;18.908;2023-06-10T09:30:44;9.18;;;6.47;;
70707;SDS011;58277;47.316;18.908;2023-06-10T09:33:11;9.00;;;6.38;;
70707;SDS011;58277;47.316;18.908;2023-06-10T09:35:35;8.05;;;6.15;;
70707;SDS011;58277;47.316;18.908;2023-06-10T09:37:59;8.87;;;6.67;;
70707;SDS011;58277;47.316;18.908;2023-06-10T09:40:22;8.50;;;6.20;;
70707;SDS011;58277;47.316;18.908;2023-06-10T09:42:46;12.30;;;7.47;;
70707;SDS011;58277;47.316;18.908;2023-06-10T09:45:17;11.25;;;6.60;;
70707;SDS011;58277;47.316;18.908;2023-06-10T09:47:39;8.00;;;6.22;;
70707;SDS011;58277;47.316;18.908;2023-06-10T09:50:02;8.70;;;6.47;;
70707;SDS011;58277;47.316;18.908;2023-06-10T09:52:26;8.43;;;6.13;;
70707;SDS011;58277;47.316;18.908;2023-06-10T09:54:51;10.05;;;7.15;;
70707;SDS011;58277;47.316;18.908;2023-06-10T09:57:15;12.10;;;7.40;;
70707;SDS011;58277;47.316;18.908;2023-06-10T09:59:39;9.75;;;7.22;;
70707;SDS011;58277;47.316;18.908;2023-06-10T10:02:02;7.73;;;5.93;;
70707;SDS011;58277;47.316;18.908;2023-06-10T10:04:29;9.45;;;6.60;;
70707;SDS011;58277;47.316;18.908;2023-06-10T10:06:52;10.02;;;6.40;;
70707;SDS011;58277;47.316;18.908;2023-06-10T10:09:15;9.90;;;6.70;;
70707;SDS011;58277;47.316;18.908;2023-06-10T10:11:37;10.82;;;7.03;;
70707;SDS011;58277;47.316;18.908;2023-06-10T10:14:00;9.50;;;6.40;;
70707;SDS011;58277;47.316;18.908;2023-06-10T10:16:30;8.20;;;6.65;;
70707;SDS011;58277;47.316;18.908;2023-06-10T10:19:07;9.38;;;7.03;;
70707;SDS011;58277;47.316;18.908;2023-06-10T10:21:35;9.35;;;6.75;;
70707;SDS011;58277;47.316;18.908;2023-06-10T10:24:07;10.05;;;7.22;;
70707;SDS011;58277;47.316;18.908;2023-06-10T10:26:37;8.90;;;6.87;;
70707;SDS011;58277;47.316;18.908;2023-06-10T10:29:11;9.60;;;7.30;;
70707;SDS011;58277;47.316;18.908;2023-06-10T10:31:43;11.15;;;7.10;;
70707;SDS011;58277;47.316;18.908;2023-06-10T10:34:09;6.60;;;4.70;;
70707;SDS011;58277;47.316;18.908;2023-06-10T10:36:37;5.57;;;4.45;;
70707;SDS011;58277;47.316;18.908;2023-06-10T10:39:00;5.40;;;3.90;;
70707;SDS011;58277;47.316;18.908;2023-06-10T10:41:25;6.15;;;4.25;;
70707;SDS011;58277;47.316;18.908;2023-06-10T10:43:48;4.63;;;3.63;;
70707;SDS011;58277;47.316;18.908;2023-06-10T10:46:14;6.18;;;3.63;;
70707;SDS011;58277;47.316;18.908;2023-06-10T10:48:39;4.47;;;3.60;;
70707;SDS011;58277;47.316;18.908;2023-06-10T10:51:05;4.40;;;3.27;;
70707;SDS011;58277;47.316;18.908;2023-06-10T10:53:28;4.93;;;3.70;;
70707;SDS011;58277;47.316;18.908;2023-06-10T10:56:26;4.88;;;3.50;;
70707;SDS011;58277;47.316;18.908;2023-06-10T10:58:41;4.82;;;3.00;;
70707;SDS011;58277;47.316;18.908;2023-06-10T11:01:13;6.43;;;3.60;;
70707;SDS011;58277;47.316;18.908;2023-06-10T11:03:42;4.27;;;3.40;;
70707;SDS011;58277;47.316;18.908;2023-06-10T11:06:07;5.25;;;3.35;;
70707;SDS011;58277;47.316;18.908;2023-06-10T11:10:57;5.85;;;3.90;;
70707;SDS011;58277;47.316;18.908;2023-06-10T11:13:21;5.80;;;3.60;;
70707;SDS011;58277;47.316;18.908;2023-06-10T11:15:45;4.03;;;3.47;;
70707;SDS011;58277;47.316;18.908;2023-06-10T11:18:13;4.18;;;3.25;;
70707;SDS011;58277;47.316;18.908;2023-06-10T11:23:24;4.43;;;3.60;;
70707;SDS011;58277;47.316;18.908;2023-06-10T11:25:50;5.32;;;4.00;;
70707;SDS011;58277;47.316;18.908;2023-06-10T11:28:19;11.13;;;3.70;;
70707;SDS011;58277;47.316;18.908;2023-06-10T11:30:42;6.72;;;3.58;;
70707;SDS011;58277;47.316;18.908;2023-06-10T11:33:04;7.68;;;3.90;;
70707;SDS011;58277;47.316;18.908;2023-06-10T11:35:28;5.05;;;3.72;;
70707;SDS011;58277;47.316;18.908;2023-06-10T11:37:52;5.25;;;4.20;;
70707;SDS011;58277;47.316;18.908;2023-06-10T11:40:14;6.33;;;4.13;;
70707;SDS011;58277;47.316;18.908;2023-06-10T11:42:38;6.10;;;4.20;;
70707;SDS011;58277;47.316;18.908;2023-06-10T11:45:03;5.68;;;4.32;;
70707;SDS011;58277;47.316;18.908;2023-06-10T11:47:31;5.65;;;4.05;;
70707;SDS011;58277;47.316;18.908;2023-06-10T11:49:56;6.38;;;4.72;;
70707;SDS011;58277;47.316;18.908;2023-06-10T11:52:22;5.67;;;4.17;;
70707;SDS011;58277;47.316;18.908;2023-06-10T11:54:55;6.10;;;4.20;;
70707;SDS011;58277;47.316;18.908;2023-06-10T11:57:18;4.43;;;3.80;;
70707;SDS011;58277;47.316;18.908;2023-06-10T11:59:41;5.57;;;4.50;;
70707;SDS011;58277;47.316;18.908;2023-06-10T12:02:04;7.43;;;5.53;;
70707;SDS011;58277;47.316;18.908;2023-06-10T12:04:26;8.20;;;6.17;;
70707;SDS011;58277;47.316;18.908;2023-06-10T12:06:50;9.45;;;6.80;;
70707;SDS011;58277;47.316;18.908;2023-06-10T12:11:51;11.43;;;7.03;;
70707;SDS011;58277;47.316;18.908;2023-06-10T12:14:15;10.00;;;7.25;;
70707;SDS011;58277;47.316;18.908;2023-06-10T12:16:47;11.10;;;7.97;;
70707;SDS011;58277;47.316;18.908;2023-06-10T12:19:10;10.75;;;7.70;;
70707;SDS011;58277;47.316;18.908;2023-06-10T12:21:33;16.35;;;8.45;;
70707;SDS011;58277;47.316;18.908;2023-06-10T12:24:09;12.35;;;8.60;;
70707;SDS011;58277;47.316;18.908;2023-06-10T12:26:43;9.40;;;7.32;;
70707;SDS011;58277;47.316;18.908;2023-06-10T12:29:15;9.03;;;6.90;;
70707;SDS011;58277;47.316;18.908;2023-06-10T12:34:30;10.40;;;7.50;;
70707;SDS011;58277;47.316;18.908;2023-06-10T12:36:54;12.68;;;7.75;;
70707;SDS011;58277;47.316;18.908;2023-06-10T12:39:16;9.75;;;7.07;;
70707;SDS011;58277;47.316;18.908;2023-06-10T12:41:39;12.70;;;7.67;;
70707;SDS011;58277;47.316;18.908;2023-06-10T12:44:03;9.45;;;7.35;;
70707;SDS011;58277;47.316;18.908;2023-06-10T12:46:35;10.25;;;7.57;;
70707;SDS011;58277;47.316;18.908;2023-06-10T12:48:58;11.23;;;8.50;;
70707;SDS011;58277;47.316;18.908;2023-06-10T12:51:21;11.45;;;9.00;;
70707;SDS011;58277;47.316;18.908;2023-06-10T12:53:44;11.30;;;9.03;;
70707;SDS011;58277;47.316;18.908;2023-06-10T12:56:07;11.68;;;8.90;;
70707;SDS011;58277;47.316;18.908;2023-06-10T12:58:29;9.65;;;8.23;;
70707;SDS011;58277;47.316;18.908;2023-06-10T13:00:52;10.02;;;7.70;;
70707;SDS011;58277;47.316;18.908;2023-06-10T13:03:15;10.60;;;8.40;;
70707;SDS011;58277;47.316;18.908;2023-06-10T13:05:38;10.37;;;8.13;;
70707;SDS011;58277;47.316;18.908;2023-06-10T13:08:01;10.93;;;8.13;;
70707;SDS011;58277;47.316;18.908;2023-06-10T13:10:25;10.20;;;7.15;;
70707;SDS011;58277;47.316;18.908;2023-06-10T13:12:48;10.40;;;7.85;;
70707;SDS011;58277;47.316;18.908;2023-06-10T13:15:12;9.02;;;6.30;;
70707;SDS011;58277;47.316;18.908;2023-06-10T13:17:35;8.53;;;6.00;;
70707;SDS011;58277;47.316;18.908;2023-06-10T13:19:58;8.75;;;6.40;;
70707;SDS011;58277;47.316;18.908;2023-06-10T13:22:20;10.07;;;6.85;;
70707;SDS011;58277;47.316;18.908;2023-06-10T13:24:44;9.32;;;6.40;;
70707;SDS011;58277;47.316;18.908;2023-06-10T13:27:06;7.55;;;5.40;;
70707;SDS011;58277;47.316;18.908;2023-06-10T13:29:29;6.43;;;4.70;;
70707;SDS011;58277;47.316;18.908;2023-06-10T13:31:53;6.15;;;4.68;;
70707;SDS011;58277;47.316;18.908;2023-06-10T13:34:16;6.68;;;4.80;;
70707;SDS011;58277;47.316;18.908;2023-06-10T13:36:39;5.78;;;4.70;;
70707;SDS011;58277;47.316;18.908;2023-06-10T13:39:02;5.40;;;4.50;;
70707;SDS011;58277;47.316;18.908;2023-06-10T13:41:24;8.30;;;5.37;;
70707;SDS011;58277;47.316;18.908;2023-06-10T13:43:50;9.05;;;5.20;;
70707;SDS011;58277;47.316;18.908;2023-06-10T13:46:13;7.22;;;5.70;;
70707;SDS011;58277;47.316;18.908;2023-06-10T13:48:36;6.88;;;5.78;;
70707;SDS011;58277;47.316;18.908;2023-06-10T13:50:59;6.35;;;5.35;;
70707;SDS011;58277;47.316;18.908;2023-06-10T13:53:22;6.77;;;5.30;;
70707;SDS011;58277;47.316;18.908;2023-06-10T13:55:45;6.78;;;5.53;;
70707;SDS011;58277;47.316;18.908;2023-06-10T14:01:11;7.47;;;6.03;;
70707;SDS011;58277;47.316;18.908;2023-06-10T14:03:34;7.57;;;6.05;;
70707;SDS011;58277;47.316;18.908;2023-06-10T14:05:57;9.10;;;6.27;;
70707;SDS011;58277;47.316;18.908;2023-06-10T14:08:20;7.38;;;6.20;;
70707;SDS011;58277;47.316;18.908;2023-06-10T14:10:43;7.03;;;5.75;;
70707;SDS011;58277;47.316;18.908;2023-06-10T14:13:06;6.65;;;5.95;;
70707;SDS011;58277;47.316;18.908;2023-06-10T14:15:29;7.55;;;5.35;;
70707;SDS011;58277;47.316;18.908;2023-06-10T14:17:52;6.63;;;4.60;;
70707;SDS011;58277;47.316;18.908;2023-06-10T14:20:15;5.50;;;4.68;;
70707;SDS011;58277;47.316;18.908;2023-06-10T14:22:38;4.97;;;4.38;;
70707;SDS011;58277;47.316;18.908;2023-06-10T14:25:01;6.97;;;5.45;;
70707;SDS011;58277;47.316;18.908;2023-06-10T14:27:23;6.00;;;5.07;;
70707;SDS011;58277;47.316;18.908;2023-06-10T14:29:46;6.20;;;5.43;;